createdAt,value
2018-06-28T00:01:21.576Z,40.60
2018-06-28T00:03:49.980Z,41.50
2018-06-28T00:06:18.304Z,41.70
2018-06-28T00:08:46.663Z,41.00
2018-06-28T00:11:14.961Z,40.50
2018-06-28T00:13:43.730Z,41.10
2018-06-28T00:16:12.375Z,40.70
2018-06-28T00:18:40.788Z,40.80
2018-06-28T00:21:09.038Z,40.90
2018-06-28T00:23:37.315Z,41.10
2018-06-28T00:26:06.543Z,41.20
2018-06-28T00:28:34.840Z,40.90
2018-06-28T00:31:03.112Z,41.00
2018-06-28T00:33:31.347Z,41.10
2018-06-28T00:35:59.638Z,40.90
2018-06-28T00:38:28.176Z,41.10
2018-06-28T00:40:56.490Z,40.60
2018-06-28T00:43:24.703Z,40.50
2018-06-28T00:45:52.942Z,40.70
2018-06-28T00:48:21.993Z,41.30
2018-06-28T00:50:50.346Z,41.10
2018-06-28T00:53:19.011Z,41.30
2018-06-28T00:55:47.249Z,41.20
2018-06-28T00:58:15.580Z,41.20
2018-06-28T01:00:44.584Z,40.90
2018-06-28T01:03:13.059Z,41.50
2018-06-28T01:08:09.370Z,41.20
2018-06-28T01:10:37.726Z,41.70
2018-06-28T01:13:06.324Z,41.90
2018-06-28T01:15:35.425Z,42.20
2018-06-28T01:18:03.710Z,41.70
2018-06-28T01:20:31.997Z,41.70
2018-06-28T01:23:00.285Z,41.60
2018-06-28T01:25:29.058Z,41.00
2018-06-28T01:27:57.328Z,40.80
2018-06-28T01:30:25.626Z,41.00
2018-06-28T01:32:53.815Z,41.10
2018-06-28T01:35:22.022Z,40.80
2018-06-28T01:37:50.339Z,40.60
2018-06-28T01:40:18.814Z,40.70
2018-06-28T01:42:58.649Z,40.70
2018-06-28T01:45:27.308Z,40.80
2018-06-28T01:47:55.694Z,40.70
2018-06-28T01:50:24.029Z,41.00
2018-06-28T01:52:52.781Z,40.90
2018-06-28T01:55:21.935Z,41.00
2018-06-28T01:57:50.242Z,41.10
2018-06-28T02:00:18.530Z,41.10
2018-06-28T02:02:46.797Z,41.40
2018-06-28T02:05:15.011Z,41.00
2018-06-28T02:07:43.920Z,41.00
2018-06-28T02:10:12.170Z,41.40
2018-06-28T02:12:40.419Z,41.20
2018-06-28T02:15:08.730Z,41.80
2018-06-28T02:17:36.976Z,41.90
2018-06-28T02:20:05.857Z,42.20
2018-06-28T02:22:34.706Z,42.00
2018-06-28T02:25:02.899Z,41.70
2018-06-28T02:27:31.196Z,41.90
2018-06-28T02:29:59.404Z,42.10
2018-06-28T02:32:28.291Z,42.60
2018-06-28T02:34:56.539Z,42.20
2018-06-28T02:37:24.770Z,42.20
2018-06-28T02:39:52.943Z,41.70
2018-06-28T02:42:21.199Z,41.80
2018-06-28T02:44:49.654Z,41.70
2018-06-28T02:47:17.854Z,41.60
2018-06-28T02:49:46.051Z,42.20
2018-06-28T02:52:14.286Z,41.80
2018-06-28T02:54:42.577Z,41.80
2018-06-28T02:57:10.762Z,41.70
2018-06-28T02:59:39.016Z,41.90
2018-06-28T03:02:07.399Z,41.60
2018-06-28T03:04:36.257Z,41.50
2018-06-28T03:07:05.237Z,41.50
2018-06-28T03:09:33.790Z,42.40
2018-06-28T03:12:02.310Z,42.10
2018-06-28T03:14:30.576Z,41.70
2018-06-28T03:16:59.928Z,41.70
2018-06-28T03:19:28.344Z,41.70
2018-06-28T03:21:56.592Z,42.50
2018-06-28T03:24:24.835Z,42.30
2018-06-28T03:26:53.202Z,42.00
2018-06-28T03:29:21.418Z,42.50
2018-06-28T03:31:50.379Z,42.80
2018-06-28T03:34:19.091Z,42.80
2018-06-28T03:36:47.283Z,42.70
2018-06-28T03:39:15.478Z,42.80
2018-06-28T03:41:44.415Z,43.00
2018-06-28T03:44:14.049Z,43.00
2018-06-28T03:46:42.749Z,42.70
2018-06-28T03:49:12.304Z,43.00
2018-06-28T03:51:40.594Z,43.20
2018-06-28T03:54:09.094Z,43.20
2018-06-28T03:56:37.886Z,42.80
2018-06-28T03:59:07.316Z,43.00
2018-06-28T04:01:36.311Z,42.70
2018-06-28T04:04:04.604Z,42.70
2018-06-28T04:06:32.941Z,42.70
2018-06-28T04:09:01.352Z,42.20
2018-06-28T04:11:29.567Z,42.10
2018-06-28T04:13:57.887Z,41.60
2018-06-28T04:16:26.192Z,42.00
2018-06-28T04:18:55.616Z,41.40
2018-06-28T04:21:23.824Z,41.50
2018-06-28T04:23:52.093Z,41.50
2018-06-28T04:28:49.628Z,41.10
2018-06-28T04:31:17.822Z,40.80
2018-06-28T04:33:47.331Z,40.80
2018-06-28T04:36:15.607Z,40.40
2018-06-28T04:38:44.050Z,40.40
2018-06-28T04:41:12.365Z,40.40
2018-06-28T04:43:40.713Z,40.80
2018-06-28T04:46:08.996Z,40.70
2018-06-28T04:48:37.231Z,40.70
2018-06-28T04:51:05.574Z,40.50
2018-06-28T04:53:33.950Z,40.80
2018-06-28T04:56:02.164Z,40.60
2018-06-28T04:58:30.399Z,40.20
2018-06-28T05:00:58.669Z,39.70
2018-06-28T05:03:27.092Z,39.60
2018-06-28T05:05:55.371Z,39.00
2018-06-28T05:08:23.585Z,39.30
2018-06-28T05:10:51.851Z,39.20
2018-06-28T05:13:20.251Z,39.40
2018-06-28T05:15:48.772Z,39.60
2018-06-28T05:18:17.107Z,40.20
2018-06-28T05:20:45.398Z,39.60
2018-06-28T05:23:14.420Z,39.50
2018-06-28T05:25:43.231Z,39.50
2018-06-28T05:28:11.551Z,39.40
2018-06-28T05:30:39.767Z,39.30
2018-06-28T05:33:08.037Z,38.90
2018-06-28T05:36:03.781Z,39.10
2018-06-28T05:38:33.362Z,39.40
2018-06-28T05:41:01.638Z,38.90
2018-06-28T05:43:29.851Z,39.30
2018-06-28T05:45:58.062Z,38.80
2018-06-28T05:48:26.565Z,38.70
2018-06-28T05:50:54.719Z,39.00
2018-06-28T05:53:22.949Z,38.40
2018-06-28T05:55:52.035Z,37.90
2018-06-28T05:58:20.772Z,37.90
2018-06-28T06:00:49.082Z,38.10
2018-06-28T06:03:17.311Z,37.50
2018-06-28T06:05:45.542Z,37.20
2018-06-28T06:08:14.623Z,37.10
2018-06-28T06:10:43.948Z,37.70
2018-06-28T06:13:12.259Z,37.90
2018-06-28T06:15:40.471Z,37.70
2018-06-28T06:18:08.703Z,37.70
2018-06-28T06:20:36.920Z,37.60
2018-06-28T06:23:05.343Z,37.90
2018-06-28T06:25:33.639Z,37.90
2018-06-28T06:28:02.011Z,38.50
2018-06-28T06:30:30.187Z,37.90
2018-06-28T06:32:59.219Z,38.30
2018-06-28T06:35:28.555Z,38.00
2018-06-28T06:37:57.019Z,38.30
2018-06-28T06:40:25.285Z,38.50
2018-06-28T06:42:53.487Z,38.80
2018-06-28T06:45:21.684Z,38.50
2018-06-28T06:47:50.430Z,37.90
2018-06-28T06:50:18.772Z,37.80
2018-06-28T06:52:46.962Z,37.70
2018-06-28T06:55:15.150Z,37.40
2018-06-28T06:57:43.684Z,37.70
2018-06-28T07:00:12.402Z,37.80
2018-06-28T07:02:40.630Z,37.40
2018-06-28T07:05:08.887Z,37.60
2018-06-28T07:07:37.108Z,36.90
2018-06-28T07:10:05.618Z,36.60
2018-06-28T07:12:34.001Z,36.30
2018-06-28T07:15:02.310Z,36.40
2018-06-28T07:17:30.579Z,36.30
2018-06-28T07:19:59.636Z,35.40
2018-06-28T07:22:28.887Z,35.50
2018-06-28T07:24:57.336Z,34.80
2018-06-28T07:27:25.552Z,34.80
2018-06-28T07:29:53.727Z,34.20
2018-06-28T07:32:22.008Z,34.20
2018-06-28T07:34:50.371Z,34.00
2018-06-28T07:37:18.564Z,33.60
2018-06-28T07:39:46.871Z,32.90
2018-06-28T07:42:15.059Z,32.90
2018-06-28T07:44:43.571Z,33.30
2018-06-28T07:47:12.103Z,33.30
2018-06-28T07:49:40.338Z,33.20
2018-06-28T07:52:08.575Z,33.70
2018-06-28T07:54:36.779Z,34.30
2018-06-28T07:57:05.564Z,33.70
2018-06-28T07:59:34.130Z,33.80
2018-06-28T08:02:02.362Z,33.40
2018-06-28T08:04:30.602Z,32.70
2018-06-28T08:06:59.000Z,32.60
2018-06-28T08:09:27.252Z,33.30
2018-06-28T08:11:55.717Z,33.80
2018-06-28T08:14:23.926Z,33.80
2018-06-28T08:16:52.250Z,34.10
2018-06-28T08:19:20.526Z,33.50
2018-06-28T08:21:48.886Z,33.40
2018-06-28T08:24:17.143Z,34.10
2018-06-28T08:26:47.152Z,34.40
2018-06-28T08:29:15.367Z,33.60
2018-06-28T08:31:43.799Z,33.80
2018-06-28T08:34:12.276Z,33.80
2018-06-28T08:36:40.530Z,33.50
2018-06-28T08:39:09.620Z,34.00
2018-06-28T08:41:37.876Z,34.20
2018-06-28T08:44:06.486Z,34.80
2018-06-28T08:46:35.458Z,34.90
2018-06-28T08:49:03.997Z,35.00
2018-06-28T08:51:32.154Z,35.10
2018-06-28T08:54:00.419Z,36.00
2018-06-28T08:56:28.805Z,35.00
2018-06-28T08:58:57.195Z,35.40
2018-06-28T09:01:25.578Z,36.50
2018-06-28T09:03:53.830Z,35.50
2018-06-28T09:06:22.017Z,36.10
2018-06-28T09:08:50.424Z,36.80
2018-06-28T09:11:18.667Z,36.30
2018-06-28T09:13:46.892Z,35.90
2018-06-28T09:16:15.097Z,35.50
2018-06-28T09:18:44.195Z,34.90
2018-06-28T09:21:12.454Z,34.20
2018-06-28T09:23:40.657Z,34.50
2018-06-28T09:26:08.867Z,33.80
2018-06-28T09:28:37.116Z,32.80
2018-06-28T09:31:05.969Z,33.20
2018-06-28T09:33:35.014Z,33.40
2018-06-28T09:36:03.202Z,33.00
2018-06-28T09:38:31.428Z,33.40
2018-06-28T09:40:59.685Z,33.00
2018-06-28T09:43:28.030Z,33.50
2018-06-28T09:45:56.436Z,33.80
2018-06-28T09:48:24.607Z,33.50
2018-06-28T09:50:52.852Z,33.40
2018-06-28T09:53:21.282Z,34.00
2018-06-28T09:55:49.644Z,33.90
2018-06-28T09:58:17.887Z,33.20
2018-06-28T10:00:46.103Z,32.80
2018-06-28T10:03:15.315Z,32.90
2018-06-28T10:05:43.577Z,33.60
2018-06-28T10:10:40.961Z,33.60
2018-06-28T10:13:09.212Z,33.70
2018-06-28T10:15:37.487Z,33.50
2018-06-28T10:18:05.960Z,33.20
2018-06-28T10:20:34.132Z,33.40
2018-06-28T10:23:02.336Z,34.00
2018-06-28T10:25:30.533Z,33.40
2018-06-28T10:27:58.940Z,33.30
2018-06-28T10:30:27.257Z,33.30
2018-06-28T10:32:55.762Z,32.80
2018-06-28T10:35:23.967Z,32.20
2018-06-28T10:37:52.176Z,32.50
2018-06-28T10:40:20.999Z,32.40
2018-06-28T10:42:49.828Z,32.70
2018-06-28T10:45:18.032Z,32.60
2018-06-28T10:47:46.324Z,32.50
2018-06-28T10:50:14.634Z,32.30
2018-06-28T10:52:43.235Z,32.40
2018-06-28T10:55:11.796Z,32.80
2018-06-28T10:57:39.987Z,32.40
2018-06-28T11:00:08.211Z,32.80
2018-06-28T11:02:37.504Z,32.60
2018-06-28T11:05:06.756Z,32.80
2018-06-28T11:07:35.303Z,33.50
2018-06-28T11:10:03.767Z,33.00
2018-06-28T11:12:32.003Z,32.90
2018-06-28T11:15:00.268Z,33.00
2018-06-28T11:17:28.497Z,32.20
2018-06-28T11:19:56.980Z,32.00
2018-06-28T11:22:25.414Z,31.00
2018-06-28T11:24:53.643Z,30.80
2018-06-28T11:27:22.126Z,30.50
2018-06-28T11:29:50.963Z,30.40
2018-06-28T11:32:19.428Z,30.40
2018-06-28T11:34:47.619Z,30.80
2018-06-28T11:37:15.822Z,30.20
2018-06-28T11:39:44.156Z,29.40
2018-06-28T11:42:12.503Z,28.70
2018-06-28T11:44:40.723Z,28.70
2018-06-28T11:47:08.955Z,28.30
2018-06-28T11:49:38.067Z,28.20
2018-06-28T11:54:35.656Z,29.00
2018-06-28T11:57:03.912Z,30.60
2018-06-28T11:59:32.100Z,32.00
2018-06-28T12:02:00.279Z,31.70
2018-06-28T12:04:29.207Z,31.40
2018-06-28T12:06:57.796Z,30.20
2018-06-28T12:09:26.082Z,29.40
2018-06-28T12:11:54.302Z,29.90
2018-06-28T12:19:19.063Z,29.00
2018-06-28T12:21:47.613Z,29.00
2018-06-28T12:24:15.822Z,28.70
2018-06-28T12:26:44.295Z,28.60
2018-06-28T12:29:12.542Z,29.20
2018-06-28T12:31:40.757Z,30.40
2018-06-28T12:34:08.963Z,32.40
2018-06-28T12:36:37.268Z,32.00
2018-06-28T12:39:07.938Z,31.90
2018-06-28T12:41:36.968Z,31.20
2018-06-28T12:44:05.304Z,30.30
2018-06-28T12:47:48.553Z,30.20
2018-06-28T12:50:16.790Z,29.50
2018-06-28T12:52:53.091Z,28.80
2018-06-28T12:55:21.762Z,29.10
2018-06-28T12:57:50.907Z,28.90
2018-06-28T13:00:19.473Z,29.50
2018-06-28T13:02:47.709Z,30.50
2018-06-28T13:05:16.611Z,28.90
2018-06-28T13:07:45.184Z,30.00
2018-06-28T13:10:14.507Z,29.20
2018-06-28T13:12:42.954Z,29.30
2018-06-28T13:15:13.274Z,29.40
2018-06-28T13:17:41.790Z,29.60
2018-06-28T13:20:10.412Z,29.90
2018-06-28T13:22:39.180Z,29.90
2018-06-28T13:25:08.560Z,29.60
2018-06-28T13:27:36.926Z,30.00
2018-06-28T13:30:06.319Z,30.20
2018-06-28T13:32:34.545Z,29.80
2018-06-28T13:35:02.837Z,29.90
2018-06-28T13:37:31.017Z,29.90
2018-06-28T13:39:59.726Z,31.10
2018-06-28T13:42:27.945Z,31.20
2018-06-28T13:44:56.161Z,31.80
2018-06-28T13:47:24.383Z,31.00
2018-06-28T13:49:52.575Z,31.20
2018-06-28T13:52:21.012Z,31.20
2018-06-28T13:54:49.208Z,31.20
2018-06-28T13:57:17.472Z,32.30
2018-06-28T13:59:45.612Z,32.50
2018-06-28T14:02:14.871Z,32.90
2018-06-28T14:04:43.111Z,34.10
2018-06-28T14:07:11.329Z,34.50
2018-06-28T14:09:39.553Z,37.00
2018-06-28T14:12:07.760Z,38.50
2018-06-28T14:14:36.118Z,40.70
2018-06-28T14:17:04.335Z,42.00
2018-06-28T14:19:32.563Z,42.30
2018-06-28T14:22:00.798Z,43.70
2018-06-28T14:24:29.100Z,44.60
2018-06-28T14:26:57.417Z,45.40
2018-06-28T14:29:25.639Z,43.40
2018-06-28T14:31:53.861Z,44.90
2018-06-28T14:34:22.188Z,42.90
2018-06-28T14:36:50.909Z,42.50
2018-06-28T14:39:19.602Z,43.60
2018-06-28T14:41:47.853Z,44.30
2018-06-28T14:44:15.985Z,45.50
2018-06-28T14:46:44.598Z,46.40
2018-06-28T14:49:13.499Z,48.10
2018-06-28T14:51:41.707Z,49.60
2018-06-28T14:54:09.919Z,49.20
2018-06-28T14:56:38.218Z,50.80
2018-06-28T14:59:06.574Z,51.50
2018-06-28T15:01:35.047Z,50.60
2018-06-28T15:04:03.215Z,51.70
2018-06-28T15:06:31.427Z,51.30
2018-06-28T15:08:59.684Z,52.20
2018-06-28T15:11:27.939Z,52.80
2018-06-28T15:13:56.242Z,52.70
2018-06-28T15:16:24.494Z,52.80
2018-06-28T15:18:52.714Z,51.40
2018-06-28T15:21:21.128Z,51.40
2018-06-28T15:23:49.336Z,51.50
2018-06-28T15:28:45.510Z,51.40
2018-06-28T15:31:14.126Z,50.20
2018-06-28T15:33:42.347Z,50.70
2018-06-28T15:36:10.534Z,50.10
2018-06-28T15:38:38.865Z,50.70
2018-06-28T15:41:07.082Z,50.20
2018-06-28T15:43:36.096Z,50.40
2018-06-28T15:46:04.327Z,51.00
2018-06-28T15:48:32.518Z,51.20
2018-06-28T15:51:00.777Z,51.10
2018-06-28T15:53:29.138Z,51.40
2018-06-28T15:55:57.490Z,50.90
2018-06-28T15:58:25.776Z,51.40
2018-06-28T16:00:54.002Z,52.10
2018-06-28T16:05:50.699Z,51.60
2018-06-28T16:08:19.054Z,50.70
2018-06-28T16:10:47.433Z,50.60
2018-06-28T16:13:15.673Z,50.30
2018-06-28T16:15:44.827Z,50.30
2018-06-28T16:18:14.399Z,50.20
2018-06-28T16:20:42.659Z,50.70
2018-06-28T16:23:10.871Z,50.60
2018-06-28T16:25:39.198Z,51.50
2018-06-28T16:28:07.418Z,50.40
2018-06-28T16:30:35.838Z,49.70
2018-06-28T16:33:04.257Z,50.80
2018-06-28T16:35:32.528Z,50.60
2018-06-28T16:38:00.718Z,50.90
2018-06-28T16:40:29.011Z,50.60
2018-06-28T16:42:57.449Z,49.90
2018-06-28T16:45:25.693Z,49.40
2018-06-28T16:47:53.889Z,49.50
2018-06-28T16:50:22.111Z,50.10
2018-06-28T16:52:50.482Z,49.20
2018-06-28T16:55:18.697Z,48.80
2018-06-28T16:57:46.990Z,49.90
2018-06-28T17:00:15.188Z,50.40
2018-06-28T17:02:43.911Z,49.70
2018-06-28T17:05:12.274Z,49.80
2018-06-28T17:07:40.570Z,50.00
2018-06-28T17:10:08.762Z,50.10
2018-06-28T17:12:37.243Z,50.00
2018-06-28T17:15:05.868Z,50.10
2018-06-28T17:17:34.513Z,49.70
2018-06-28T17:20:02.751Z,50.80
2018-06-28T17:22:31.460Z,50.10
2018-06-28T17:24:59.971Z,51.00
2018-06-28T17:27:31.591Z,49.80
2018-06-28T17:29:59.876Z,50.50
2018-06-28T17:32:28.944Z,50.70
2018-06-28T17:34:57.723Z,51.20
2018-06-28T17:37:25.971Z,51.10
2018-06-28T17:39:54.164Z,52.20
2018-06-28T17:42:22.420Z,53.30
2018-06-28T17:44:50.764Z,53.80
2018-06-28T17:47:18.958Z,53.30
2018-06-28T17:49:47.180Z,53.40
2018-06-28T17:52:15.548Z,53.40
2018-06-28T17:54:45.375Z,54.00
2018-06-28T17:57:13.719Z,54.10
2018-06-28T17:59:41.974Z,54.80
2018-06-28T18:02:10.154Z,54.50
2018-06-28T18:04:38.460Z,54.70
2018-06-28T18:07:07.475Z,55.20
2018-06-28T18:09:35.761Z,54.30
2018-06-28T18:14:31.986Z,55.30
2018-06-28T18:17:00.216Z,53.40
2018-06-28T18:19:29.082Z,54.70
2018-06-28T18:21:57.521Z,54.90
2018-06-28T18:24:25.914Z,55.50
2018-06-28T18:26:54.186Z,54.10
2018-06-28T18:29:36.741Z,54.40
2018-06-28T18:32:05.183Z,54.00
2018-06-28T18:34:33.515Z,55.00
2018-06-28T18:37:01.804Z,54.50
2018-06-28T18:39:30.034Z,54.10
2018-06-28T18:41:58.609Z,55.40
2018-06-28T18:44:27.200Z,55.50
2018-06-28T18:46:55.461Z,54.50
2018-06-28T18:49:23.670Z,53.70
2018-06-28T18:51:52.908Z,53.80
2018-06-28T18:54:21.196Z,53.60
2018-06-28T18:56:49.551Z,54.50
2018-06-28T18:59:17.838Z,54.60
2018-06-28T19:01:46.126Z,53.80
2018-06-28T19:04:14.351Z,53.50
2018-06-28T19:06:42.735Z,53.80
2018-06-28T19:09:12.368Z,53.30
2018-06-28T19:11:40.571Z,53.40
2018-06-28T19:14:14.371Z,52.90
2018-06-28T19:16:47.937Z,53.60
2018-06-28T19:19:16.139Z,53.60
2018-06-28T19:21:50.284Z,52.60
2018-06-28T19:24:18.484Z,53.20
2018-06-28T19:26:46.687Z,53.70
2018-06-28T19:29:20.487Z,52.30
2018-06-28T19:31:54.241Z,52.30
2018-06-28T19:34:22.542Z,52.60
2018-06-28T19:36:50.938Z,52.60
2018-06-28T19:39:24.409Z,52.60
2018-06-28T19:41:58.058Z,52.50
2018-06-28T19:44:26.291Z,53.20
2018-06-28T19:46:54.504Z,53.30
2018-06-28T19:49:28.091Z,53.50
2018-06-28T19:52:01.970Z,53.60
2018-06-28T19:54:30.247Z,53.50
2018-06-28T19:56:58.751Z,54.20
2018-06-28T19:59:27.299Z,54.40
2018-06-28T20:02:00.802Z,53.70
2018-06-28T20:04:34.638Z,53.30
2018-06-28T20:07:02.868Z,53.00
2018-06-28T20:09:31.062Z,53.80
2018-06-28T20:11:59.905Z,52.40
2018-06-28T20:17:06.922Z,51.50
2018-06-28T20:19:40.562Z,52.20
2018-06-28T20:22:08.855Z,51.90
2018-06-28T20:24:37.233Z,52.80
2018-06-28T20:27:10.775Z,52.40
2018-06-28T20:32:17.932Z,52.00
2018-06-28T20:34:46.151Z,51.90
2018-06-28T20:37:14.426Z,51.60
2018-06-28T20:39:43.570Z,51.60
2018-06-28T20:42:12.677Z,51.60
2018-06-28T20:44:40.897Z,51.60
2018-06-28T20:47:09.119Z,51.90
2018-06-28T20:49:37.384Z,51.90
2018-06-28T20:52:05.826Z,51.90
2018-06-28T20:54:34.047Z,52.10
2018-06-28T20:57:02.270Z,51.90
2018-06-28T20:59:30.506Z,52.10
2018-06-28T21:01:58.807Z,52.60
2018-06-28T21:04:27.083Z,52.60
2018-06-28T21:06:55.344Z,53.20
2018-06-28T21:09:23.883Z,52.20
2018-06-28T21:11:52.952Z,53.00
2018-06-28T21:14:21.326Z,52.40
2018-06-28T21:16:49.671Z,52.40
2018-06-28T21:19:18.962Z,52.70
2018-06-28T21:21:47.292Z,52.40
2018-06-28T21:26:43.546Z,52.30
2018-06-28T21:29:12.248Z,51.80
2018-06-28T21:31:40.455Z,52.20
2018-06-28T21:34:08.791Z,52.20
2018-06-28T21:36:37.316Z,52.00
2018-06-28T21:39:08.351Z,51.90
2018-06-28T21:41:36.797Z,52.10
2018-06-28T21:44:05.120Z,51.70
2018-06-28T21:46:33.722Z,52.70
2018-06-28T21:49:02.973Z,51.60
2018-06-28T21:51:32.425Z,51.30
2018-06-28T21:54:00.717Z,51.60
2018-06-28T21:56:29.192Z,51.10
2018-06-28T21:58:57.594Z,51.80
2018-06-28T22:01:25.846Z,51.70
2018-06-28T22:03:54.220Z,52.10
2018-06-28T22:06:22.665Z,52.00
2018-06-28T22:08:51.081Z,51.10
2018-06-28T22:11:19.440Z,51.00
2018-06-28T22:13:47.848Z,51.20
2018-06-28T22:16:16.058Z,51.40
2018-06-28T22:18:44.464Z,51.60
2018-06-28T22:21:12.702Z,51.80
2018-06-28T22:23:41.016Z,50.30
2018-06-28T22:26:09.356Z,50.30
2018-06-28T22:28:37.569Z,51.00
2018-06-28T22:31:06.798Z,50.80
2018-06-28T22:33:35.022Z,50.90
2018-06-28T22:36:03.231Z,51.20
2018-06-28T22:38:31.444Z,51.20
2018-06-28T22:41:00.236Z,51.90
2018-06-28T22:43:28.869Z,51.60
2018-06-28T22:45:57.128Z,51.40
2018-06-28T22:48:25.331Z,51.40
2018-06-28T22:50:53.949Z,51.60
2018-06-28T22:53:22.870Z,51.50
2018-06-28T22:55:51.662Z,51.40
2018-06-28T22:58:20.068Z,51.10
2018-06-28T23:00:48.315Z,50.60
2018-06-28T23:03:16.687Z,50.60
2018-06-28T23:05:45.108Z,50.40
2018-06-28T23:08:13.517Z,51.00
2018-06-28T23:10:41.967Z,51.00
2018-06-28T23:13:10.554Z,50.50
2018-06-28T23:15:39.783Z,51.00
2018-06-28T23:18:08.295Z,50.00
2018-06-28T23:20:37.471Z,49.20
2018-06-28T23:23:06.154Z,49.40
2018-06-28T23:25:34.464Z,50.10
2018-06-28T23:28:02.743Z,49.90
2018-06-28T23:30:31.052Z,49.50
2018-06-28T23:32:59.368Z,50.10
2018-06-28T23:35:27.940Z,49.60
2018-06-28T23:37:56.315Z,49.70
2018-06-28T23:40:24.803Z,49.40
2018-06-28T23:42:53.392Z,49.80
2018-06-28T23:45:22.124Z,50.20
2018-06-28T23:47:50.857Z,49.90
2018-06-28T23:50:19.968Z,49.60
2018-06-28T23:52:48.417Z,50.00
2018-06-28T23:55:16.659Z,50.30
2018-06-28T23:57:45.179Z,49.90
